Time;durP1;ratioP1;P1;durP2;ratioP2;P2;SDS_P1;SDS_P2;PMS_P1;PMS_P2;Temp;Humidity;BMP_temperature;BMP_pressure;BME280_temperature;BME280_humidity;BME280_pressure;Samples;Min_cycle;Max_cycle;Signal;HPM_P1;HPM_P2
2023/11/13 00:01:50;;;;;;;9.90;5.57;;;;;;;2.19;100.00;97914.53;6102209;19;20018;-75
2023/11/13 00:03:51;;;;;;;9.35;5.90;;;;;;;2.12;100.00;97914.28;6101894;19;20130;-74
2023/11/13 00:05:51;;;;;;;9.43;5.65;;;;;;;2.14;100.00;97917.47;6098301;19;20038;-75
2023/11/13 00:07:55;;;;;;;11.20;6.90;;;;;;;2.08;100.00;97908.72;6098998;19;20121;-74
2023/11/13 00:09:55;;;;;;;12.25;6.30;;;;;;;2.08;100.00;97918.84;6100933;19;20425;-75
2023/11/13 00:11:55;;;;;;;14.70;6.68;;;;;;;2.12;100.00;97917.81;6101707;19;20484;-75
2023/11/13 00:13:56;;;;;;;9.48;5.95;;;;;;;2.13;100.00;97919.41;6101542;19;20007;-75
2023/11/13 00:15:57;;;;;;;11.32;7.05;;;;;;;2.14;100.00;97912.81;6100167;19;20066;-74
2023/11/13 00:17:57;;;;;;;11.60;6.70;;;;;;;2.07;100.00;97922.69;6100322;19;20010;-75
2023/11/13 00:19:58;;;;;;;9.95;6.22;;;;;;;2.01;100.00;97921.31;6100862;19;20014;-74
2023/11/13 00:21:58;;;;;;;10.55;5.70;;;;;;;1.96;100.00;97904.00;6101355;19;20014;-75
2023/11/13 00:23:59;;;;;;;10.18;6.20;;;;;;;2.03;100.00;97899.94;6101354;19;20010;-75
2023/11/13 00:25:59;;;;;;;14.25;6.40;;;;;;;2.03;100.00;97897.22;6100702;19;20006;-75
2023/11/13 00:28:00;;;;;;;8.60;5.57;;;;;;;2.00;100.00;97898.69;6101591;19;20027;-75
2023/11/13 00:30:00;;;;;;;11.25;6.10;;;;;;;1.98;100.00;97903.66;6101185;19;20091;-75
2023/11/13 00:32:00;;;;;;;7.03;5.25;;;;;;;1.93;100.00;97882.06;6101510;19;20703;-75
2023/11/13 00:34:01;;;;;;;8.52;5.80;;;;;;;1.82;100.00;97878.13;6101143;19;20014;-75
2023/11/13 00:36:02;;;;;;;10.63;6.65;;;;;;;1.73;100.00;97880.16;6099639;19;20014;-75
2023/11/13 00:38:02;;;;;;;8.18;5.70;;;;;;;1.65;100.00;97868.19;6099127;19;20009;-75
2023/11/13 00:40:04;;;;;;;8.82;5.30;;;;;;;1.58;100.00;97881.59;6100022;19;19995;-74
2023/11/13 00:42:05;;;;;;;9.15;5.75;;;;;;;1.51;100.00;97878.59;6099426;19;20003;-74
2023/11/13 00:44:06;;;;;;;9.38;5.80;;;;;;;1.44;100.00;97868.22;6099943;19;20605;-74
2023/11/13 00:46:07;;;;;;;11.05;5.97;;;;;;;1.45;100.00;97866.28;6099835;19;20013;-75
2023/11/13 00:48:07;;;;;;;9.70;6.03;;;;;;;1.43;100.00;97855.72;6099746;19;19991;-74
2023/11/13 00:50:10;;;;;;;11.18;5.95;;;;;;;1.41;100.00;97857.97;6100616;19;20085;-75
2023/11/13 00:52:11;;;;;;;12.00;5.68;;;;;;;1.38;100.00;97853.97;6099419;19;20500;-75
2023/11/13 00:54:11;;;;;;;9.13;5.88;;;;;;;1.38;100.00;97859.44;6100948;19;20011;-74
2023/11/13 00:56:12;;;;;;;12.05;6.63;;;;;;;1.39;100.00;97862.94;6100291;19;20217;-75
2023/11/13 00:58:12;;;;;;;8.40;6.13;;;;;;;1.34;100.00;97863.97;6099819;19;20002;-75
2023/11/13 01:00:14;;;;;;;11.63;6.90;;;;;;;1.26;100.00;97864.81;6100590;19;20054;-74
2023/11/13 01:02:15;;;;;;;9.93;5.72;;;;;;;1.26;100.00;97858.56;6100827;19;20002;-74
2023/11/13 01:04:15;;;;;;;8.00;5.60;;;;;;;1.20;100.00;97851.72;6099838;19;20403;-74
2023/11/13 01:06:16;;;;;;;7.45;5.40;;;;;;;1.10;100.00;97864.59;6097054;19;20012;-74
2023/11/13 01:08:16;;;;;;;8.65;5.82;;;;;;;1.08;100.00;97871.53;6099221;19;20009;-75
2023/11/13 01:10:17;;;;;;;9.43;5.57;;;;;;;1.03;100.00;97872.50;6100459;19;20074;-75
2023/11/13 01:12:19;;;;;;;8.73;5.57;;;;;;;1.02;100.00;97872.84;6100434;19;20008;-74
2023/11/13 01:14:19;;;;;;;9.20;5.68;;;;;;;0.93;100.00;97866.66;6100716;19;20650;-75
2023/11/13 01:16:20;;;;;;;10.38;6.47;;;;;;;0.80;100.00;97877.44;6098960;19;20694;-75
2023/11/13 01:18:21;;;;;;;8.27;5.75;;;;;;;0.70;100.00;97868.84;6101388;19;20030;-74
2023/11/13 01:20:23;;;;;;;8.52;5.88;;;;;;;0.68;100.00;97865.66;6104963;19;20022;-75
2023/11/13 01:22:24;;;;;;;8.55;6.05;;;;;;;0.59;100.00;97864.91;6104944;19;20017;-74
2023/11/13 01:24:24;;;;;;;10.68;5.53;;;;;;;0.54;100.00;97866.66;6106595;19;20347;-74
2023/11/13 01:26:25;;;;;;;9.15;5.57;;;;;;;0.52;100.00;97852.59;6103244;19;20338;-75
2023/11/13 01:28:25;;;;;;;9.65;6.50;;;;;;;0.51;100.00;97844.75;6096199;19;20013;-75
2023/11/13 01:30:26;;;;;;;9.13;5.63;;;;;;;0.55;100.00;97840.25;6104623;19;20054;-75
2023/11/13 01:32:26;;;;;;;8.82;5.78;;;;;;;0.54;100.00;97827.78;6104676;19;20387;-74
2023/11/13 01:34:26;;;;;;;7.47;5.28;;;;;;;0.54;100.00;97830.50;6104661;19;20011;-75
2023/11/13 01:36:27;;;;;;;11.25;6.65;;;;;;;0.48;100.00;97829.88;6104212;19;20011;-75
2023/11/13 01:38:27;;;;;;;7.63;5.03;;;;;;;0.49;100.00;97825.22;6102827;19;20003;-75
2023/11/13 01:40:28;;;;;;;11.57;6.00;;;;;;;0.42;100.00;97825.75;6104473;19;20279;-75
2023/11/13 01:42:28;;;;;;;9.80;5.90;;;;;;;0.44;100.00;97818.06;6104790;19;20007;-75
2023/11/13 01:44:28;;;;;;;8.85;5.57;;;;;;;0.41;100.00;97832.28;6105107;19;20006;-74
2023/11/13 01:46:30;;;;;;;10.52;5.90;;;;;;;0.35;100.00;97838.28;6103526;19;20391;-75
2023/11/13 01:48:30;;;;;;;8.50;5.90;;;;;;;0.33;100.00;97835.84;6102798;19;20023;-75
2023/11/13 01:50:31;;;;;;;7.25;5.65;;;;;;;0.37;100.00;97830.56;6104253;19;20010;-75
2023/11/13 01:52:33;;;;;;;8.60;5.60;;;;;;;0.37;100.00;97822.41;6106588;19;20062;-75
2023/11/13 01:54:33;;;;;;;8.00;5.95;;;;;;;0.38;100.00;97824.78;6105326;19;20007;-75
2023/11/13 01:56:34;;;;;;;9.25;6.32;;;;;;;0.34;100.00;97823.88;6103729;19;20027;-75
2023/11/13 01:58:35;;;;;;;10.63;6.63;;;;;;;0.33;100.00;97838.56;6105290;19;20002;-75
2023/11/13 02:00:35;;;;;;;7.97;5.35;;;;;;;0.31;100.00;97832.66;6105618;19;20343;-75
2023/11/13 02:02:35;;;;;;;8.95;5.90;;;;;;;0.31;100.00;97834.59;6103838;19;20006;-74
2023/11/13 02:04:36;;;;;;;9.95;5.45;;;;;;;0.26;100.00;97835.59;6104871;19;20365;-75
2023/11/13 02:06:37;;;;;;;9.80;6.45;;;;;;;0.20;100.00;97834.97;6102798;19;20020;-75
2023/11/13 02:08:38;;;;;;;10.82;6.55;;;;;;;0.23;100.00;97825.34;6104187;19;20012;-74
2023/11/13 02:10:39;;;;;;;13.05;7.47;;;;;;;0.20;100.00;97834.16;6105453;19;20095;-75
2023/11/13 02:12:40;;;;;;;12.05;7.05;;;;;;;0.18;100.00;97830.97;6106340;19;20006;-75
2023/11/13 02:14:40;;;;;;;10.80;5.85;;;;;;;0.23;100.00;97839.72;6105194;19;20017;-74
2023/11/13 02:16:41;;;;;;;14.30;6.88;;;;;;;0.25;100.00;97842.94;6103545;19;20010;-75
2023/11/13 02:18:41;;;;;;;12.05;7.55;;;;;;;0.21;100.00;97844.72;6104507;19;20010;-75
2023/11/13 02:20:42;;;;;;;11.52;6.82;;;;;;;0.16;100.00;97834.00;6106040;19;20015;-75
2023/11/13 02:22:42;;;;;;;11.23;6.25;;;;;;;0.15;100.00;97831.59;6104036;19;20082;-75
2023/11/13 02:24:42;;;;;;;9.10;5.75;;;;;;;0.17;100.00;97826.66;6104458;19;20003;-75
2023/11/13 02:26:43;;;;;;;12.93;5.53;;;;;;;0.20;100.00;97834.97;6104098;19;20329;-75
2023/11/13 02:28:44;;;;;;;7.35;4.82;;;;;;;0.16;100.00;97842.16;6097537;19;20261;-75
2023/11/13 02:30:44;;;;;;;9.23;5.22;;;;;;;0.15;100.00;97837.03;6093986;19;20007;-75
2023/11/13 02:32:46;;;;;;;9.40;5.20;;;;;;;0.17;100.00;97843.78;6095645;19;20015;-75
2023/11/13 02:34:46;;;;;;;7.47;4.70;;;;;;;0.26;100.00;97849.97;6095609;19;20011;-74
2023/11/13 02:36:49;;;;;;;7.65;4.53;;;;;;;0.32;100.00;97828.03;6094793;19;20002;-74
2023/11/13 02:38:49;;;;;;;;;;;;;;;0.37;100.00;97823.19;6095361;19;20006;-75
2023/11/13 02:40:49;;;;;;;8.65;4.63;;;;;;;0.41;100.00;97824.13;6093079;19;19918;-75
2023/11/13 02:42:50;;;;;;;6.82;4.32;;;;;;;0.41;100.00;97832.28;6093485;19;20081;-75
2023/11/13 02:44:50;;;;;;;9.73;5.45;;;;;;;0.38;100.00;97832.97;6094311;19;20018;-75
2023/11/13 02:46:51;;;;;;;8.13;5.25;;;;;;;0.40;100.00;97833.44;6093914;19;20588;-75
2023/11/13 02:48:51;;;;;;;8.65;5.13;;;;;;;0.44;100.00;97825.41;6094359;19;20074;-75
2023/11/13 02:50:51;;;;;;;8.13;5.53;;;;;;;0.52;100.00;97821.84;6091113;19;20019;-74
2023/11/13 02:52:52;;;;;;;8.45;5.35;;;;;;;0.59;100.00;97810.47;6094113;19;20011;-75
2023/11/13 02:54:52;;;;;;;9.10;5.18;;;;;;;0.62;100.00;97810.59;6095281;19;20047;-75
2023/11/13 02:56:52;;;;;;;10.20;5.60;;;;;;;0.68;100.00;97806.56;6093710;19;20034;-74
2023/11/13 02:58:53;;;;;;;7.82;5.22;;;;;;;0.79;100.00;97807.75;6094666;19;20010;-75
2023/11/13 03:00:54;;;;;;;9.00;4.93;;;;;;;0.87;100.00;97797.94;6095066;19;20006;-75
2023/11/13 03:02:56;;;;;;;7.45;5.20;;;;;;;0.94;100.00;97797.41;6092735;19;20014;-75
2023/11/13 03:04:57;;;;;;;11.73;6.05;;;;;;;0.99;100.00;97798.00;6092663;19;20011;-75
2023/11/13 03:06:57;;;;;;;8.35;5.35;;;;;;;1.03;100.00;97801.66;6093522;19;20011;-74
2023/11/13 03:08:59;;;;;;;8.55;5.50;;;;;;;1.06;100.00;97806.44;6093731;19;20002;-75
2023/11/13 03:10:59;;;;;;;9.10;5.60;;;;;;;1.08;100.00;97803.41;6094021;19;20014;-75
2023/11/13 03:13:00;;;;;;;7.78;5.72;;;;;;;1.10;100.00;97806.59;6093071;19;20014;-74
2023/11/13 03:15:00;;;;;;;7.15;5.18;;;;;;;1.16;100.00;97801.72;6094043;19;20039;-75
2023/11/13 03:17:01;;;;;;;7.90;4.75;;;;;;;1.24;100.00;97790.78;6092911;19;20456;-75
2023/11/13 03:19:01;;;;;;;7.78;5.53;;;;;;;1.29;100.00;97795.22;6092153;19;20463;-75
2023/11/13 03:21:02;;;;;;;7.65;5.15;;;;;;;1.34;100.00;97790.38;6093597;19;20274;-75
2023/11/13 03:23:03;;;;;;;9.75;5.32;;;;;;;1.36;100.00;97803.66;6094542;19;20014;-74
2023/11/13 03:25:04;;;;;;;8.88;5.38;;;;;;;1.35;100.00;97799.34;6093385;19;20003;-75
2023/11/13 03:27:05;;;;;;;7.95;4.93;;;;;;;1.46;100.00;97811.41;6091583;19;20467;-75
2023/11/13 03:29:05;;;;;;;8.10;4.88;;;;;;;1.48;100.00;97803.69;6099535;19;20002;-74
2023/11/13 03:31:06;;;;;;;9.65;5.82;;;;;;;1.48;100.00;97806.41;6099898;19;20374;-75
2023/11/13 03:33:07;;;;;;;8.40;4.95;;;;;;;1.49;100.00;97804.50;6099241;19;20014;-74
2023/11/13 03:35:07;;;;;;;8.40;5.20;;;;;;;1.54;100.00;97799.63;6102855;19;20014;-74
2023/11/13 03:37:08;;;;;;;9.48;5.55;;;;;;;1.57;100.00;97795.44;6099674;19;20323;-75
2023/11/13 03:39:08;;;;;;;7.88;5.55;;;;;;;1.61;100.00;97793.66;6100751;19;20453;-75
2023/11/13 03:41:08;;;;;;;9.68;5.47;;;;;;;1.65;100.00;97794.56;6101660;19;20007;-75
2023/11/13 03:43:09;;;;;;;8.07;5.68;;;;;;;1.62;100.00;97792.50;6100863;19;20501;-75
2023/11/13 03:45:09;;;;;;;8.57;5.70;;;;;;;1.62;100.00;97797.97;6098586;19;20006;-74
2023/11/13 03:47:10;;;;;;;10.13;5.53;;;;;;;1.65;100.00;97806.25;6099795;19;20079;-75
2023/11/13 03:49:11;;;;;;;8.60;5.45;;;;;;;1.65;100.00;97789.09;6101112;19;20006;-75
2023/11/13 03:51:11;;;;;;;9.32;6.13;;;;;;;1.69;100.00;97795.50;6101809;19;20052;-75
2023/11/13 03:53:11;;;;;;;7.70;5.22;;;;;;;1.72;100.00;97791.28;6101959;19;19998;-74
2023/11/13 03:55:11;;;;;;;9.02;5.53;;;;;;;1.73;100.00;97792.88;6102301;19;20113;-75
2023/11/13 03:57:12;;;;;;;8.80;5.30;;;;;;;1.74;100.00;97797.19;6099859;19;19998;-74
2023/11/13 03:59:13;;;;;;;9.95;5.55;;;;;;;1.72;100.00;97789.34;6101843;19;20007;-75
2023/11/13 04:01:15;;;;;;;9.70;5.68;;;;;;;1.72;100.00;97783.09;6101375;19;20018;-74
2023/11/13 04:03:15;;;;;;;11.10;6.47;;;;;;;1.75;100.00;97791.44;6102438;19;20598;-75
2023/11/13 04:05:16;;;;;;;8.48;5.68;;;;;;;1.75;100.00;97793.34;6099386;19;20248;-75
2023/11/13 04:07:21;;;;;;;9.77;6.20;;;;;;;1.78;100.00;97798.13;6096503;19;20005;-75
2023/11/13 04:09:21;;;;;;;8.07;5.22;;;;;;;1.80;100.00;97793.91;6101898;19;20751;-74
2023/11/13 04:11:22;;;;;;;7.75;5.53;;;;;;;1.82;100.00;97783.50;6102582;19;20007;-75
2023/11/13 04:13:25;;;;;;;7.53;5.32;;;;;;;1.86;100.00;97786.34;6100946;19;20467;-74
2023/11/13 04:15:25;;;;;;;7.88;5.20;;;;;;;1.87;100.00;97782.47;6098312;19;20010;-75
2023/11/13 04:17:26;;;;;;;9.18;6.05;;;;;;;1.89;100.00;97793.81;6097001;19;20444;-75
2023/11/13 04:19:29;;;;;;;8.85;6.05;;;;;;;1.86;100.00;97786.34;6095001;19;20454;-75
2023/11/13 04:21:31;;;;;;;9.65;5.57;;;;;;;1.88;100.00;97794.97;6095182;19;20002;-75
2023/11/13 04:23:32;;;;;;;8.90;5.65;;;;;;;1.90;100.00;97785.34;6101730;19;20532;-75
2023/11/13 04:25:33;;;;;;;7.53;5.13;;;;;;;1.90;100.00;97781.78;6100114;19;20006;-75
2023/11/13 04:27:33;;;;;;;8.30;5.50;;;;;;;1.92;100.00;97779.53;6100833;19;20036;-75
2023/11/13 04:29:33;;;;;;;12.98;6.55;;;;;;;1.91;100.00;97767.03;6098115;19;20006;-75
2023/11/13 04:31:34;;;;;;;8.30;5.60;;;;;;;1.90;100.00;97768.97;6096507;19;20319;-75
2023/11/13 04:33:35;;;;;;;8.77;5.50;;;;;;;1.90;100.00;97777.16;6098385;19;20451;-75
2023/11/13 04:35:35;;;;;;;9.38;5.57;;;;;;;1.93;100.00;97778.41;6097661;19;20106;-75
2023/11/13 04:37:35;;;;;;;8.27;5.43;;;;;;;1.92;100.00;97782.25;6098631;19;20455;-75
2023/11/13 04:39:36;;;;;;;9.45;5.47;;;;;;;1.94;100.00;97782.72;6099989;19;20007;-75
2023/11/13 04:41:37;;;;;;;9.35;5.93;;;;;;;1.91;100.00;97776.00;6098701;19;20010;-75
2023/11/13 04:43:38;;;;;;;10.75;5.57;;;;;;;1.89;100.00;97783.72;6099341;19;20006;-74
2023/11/13 04:45:39;;;;;;;10.35;5.55;;;;;;;1.87;100.00;97779.72;6096826;19;20070;-75
2023/11/13 04:47:39;;;;;;;9.18;6.45;;;;;;;1.83;100.00;97781.56;6098486;19;20459;-74
2023/11/13 04:49:40;;;;;;;7.70;5.00;;;;;;;1.76;100.00;97773.13;6098746;19;20017;-74
2023/11/13 04:51:42;;;;;;;9.85;5.25;;;;;;;1.74;100.00;97772.66;6100115;19;20014;-75
2023/11/13 04:53:42;;;;;;;8.45;5.35;;;;;;;1.71;100.00;97785.03;6098830;19;20308;-75
2023/11/13 04:55:43;;;;;;;11.68;6.05;;;;;;;1.71;100.00;97778.78;6099909;19;20021;-75
2023/11/13 04:57:43;;;;;;;8.70;4.97;;;;;;;1.73;100.00;97790.16;6099445;19;20040;-75
2023/11/13 04:59:43;;;;;;;9.50;6.10;;;;;;;1.70;100.00;97780.72;6100171;19;20086;-75
2023/11/13 05:01:44;;;;;;;9.05;6.05;;;;;;;1.71;100.00;97792.41;6101663;19;20011;-75
2023/11/13 05:03:45;;;;;;;9.07;5.53;;;;;;;1.77;100.00;97782.91;6100685;19;20113;-75
2023/11/13 05:05:46;;;;;;;8.32;5.05;;;;;;;1.79;100.00;97791.53;6099499;19;20010;-75
2023/11/13 05:07:46;;;;;;;7.43;5.22;;;;;;;1.81;100.00;97789.25;6100411;19;20009;-75
2023/11/13 05:09:46;;;;;;;9.05;5.20;;;;;;;1.80;100.00;97791.19;6100235;19;20031;-74
2023/11/13 05:11:47;;;;;;;7.38;4.80;;;;;;;1.81;100.00;97792.00;6099901;19;20294;-74
2023/11/13 05:13:48;;;;;;;10.35;5.50;;;;;;;1.81;100.00;97792.78;6099305;19;20003;-75
2023/11/13 05:15:48;;;;;;;10.82;5.95;;;;;;;1.80;100.00;97771.31;6099903;19;20017;-75
2023/11/13 05:17:48;;;;;;;10.63;5.80;;;;;;;1.82;100.00;97771.75;6099680;19;20326;-75
2023/11/13 05:19:49;;;;;;;13.02;6.70;;;;;;;1.84;100.00;97764.06;6100390;19;20007;-75
2023/11/13 05:21:49;;;;;;;9.07;6.45;;;;;;;1.86;100.00;97764.50;6100824;19;20672;-75
2023/11/13 05:23:50;;;;;;;10.20;5.97;;;;;;;1.87;100.00;97763.38;6099838;19;20025;-75
2023/11/13 05:25:50;;;;;;;10.18;6.38;;;;;;;1.91;100.00;97773.28;6098452;19;20043;-75
2023/11/13 05:27:51;;;;;;;11.50;5.82;;;;;;;1.93;100.00;97781.13;6099217;19;20386;-75
2023/11/13 05:29:52;;;;;;;10.70;6.25;;;;;;;1.91;100.00;97778.72;6100572;19;20598;-75
2023/11/13 05:31:53;;;;;;;9.85;6.05;;;;;;;1.91;100.00;97765.09;6099904;19;20411;-74
2023/11/13 05:33:54;;;;;;;10.57;6.82;;;;;;;1.94;100.00;97769.88;6099478;19;20013;-74
2023/11/13 05:35:54;;;;;;;9.90;6.50;;;;;;;1.97;100.00;97771.13;6098937;19;20014;-75
2023/11/13 05:37:54;;;;;;;11.77;7.32;;;;;;;1.97;100.00;97769.19;6099842;19;20006;-75
2023/11/13 05:39:55;;;;;;;12.45;6.05;;;;;;;1.99;100.00;97777.03;6099735;19;20459;-75
2023/11/13 05:41:55;;;;;;;11.80;7.38;;;;;;;2.02;100.00;97770.09;6097526;19;20498;-74
2023/11/13 05:43:57;;;;;;;10.35;7.13;;;;;;;2.04;100.00;97759.66;6097761;19;20003;-75
2023/11/13 05:45:58;;;;;;;12.35;7.40;;;;;;;2.08;100.00;97758.63;6098443;19;20019;-75
2023/11/13 05:47:58;;;;;;;10.82;6.63;;;;;;;2.08;100.00;97744.19;6098697;19;20017;-75
2023/11/13 05:49:58;;;;;;;15.73;9.23;;;;;;;2.09;100.00;97743.84;6100146;19;20014;-75
2023/11/13 05:51:59;;;;;;;10.55;6.80;;;;;;;2.12;100.00;97739.63;6099375;19;20013;-75
2023/11/13 05:54:00;;;;;;;12.65;7.03;;;;;;;2.17;100.00;97742.16;6099470;19;20500;-75
2023/11/13 05:56:01;;;;;;;15.65;6.85;;;;;;;2.20;100.00;97745.00;6097378;19;20106;-75
2023/11/13 05:58:01;;;;;;;10.50;6.07;;;;;;;2.23;100.00;97749.78;6097684;19;20006;-74
2023/11/13 06:00:05;;;;;;;14.23;6.95;;;;;;;2.23;100.00;97752.50;6097948;19;20002;-74
2023/11/13 06:02:05;;;;;;;13.05;6.88;;;;;;;2.24;100.00;97745.91;6098942;19;20010;-75
2023/11/13 06:04:07;;;;;;;16.73;6.70;;;;;;;2.27;100.00;97751.81;6099931;19;20459;-75
2023/11/13 06:06:12;;;;;;;14.93;7.28;;;;;;;2.29;100.00;97749.53;6103136;19;20412;-74
2023/11/13 06:08:12;;;;;;;12.52;7.75;;;;;;;2.30;100.00;97748.41;6103984;19;20640;-74
2023/11/13 06:10:14;;;;;;;10.68;6.75;;;;;;;2.31;100.00;97728.94;6104658;19;20456;-74
2023/11/13 06:12:14;;;;;;;14.18;7.45;;;;;;;2.33;100.00;97726.69;6103395;19;20027;-75
2023/11/13 06:14:16;;;;;;;9.55;6.32;;;;;;;2.36;100.00;97733.38;6105318;19;20014;-75
2023/11/13 06:16:17;;;;;;;11.57;6.90;;;;;;;2.38;100.00;97739.28;6103462;19;20010;-74
2023/11/13 06:18:17;;;;;;;13.23;7.10;;;;;;;2.38;100.00;97742.03;6104712;19;20091;-74
2023/11/13 06:20:19;;;;;;;9.88;6.40;;;;;;;2.36;100.00;97730.66;6105477;19;20385;-75
2023/11/13 06:22:20;;;;;;;10.15;6.43;;;;;;;2.37;100.00;97734.97;6103501;19;20001;-75
2023/11/13 06:24:21;;;;;;;14.20;6.60;;;;;;;2.35;100.00;97721.69;6104491;19;20483;-75
2023/11/13 06:26:21;;;;;;;14.27;7.20;;;;;;;2.36;100.00;97733.38;6100496;19;20365;-74
2023/11/13 06:28:21;;;;;;;15.93;7.75;;;;;;;2.37;100.00;97722.13;6095416;19;20006;-74
2023/11/13 06:30:23;;;;;;;13.18;7.55;;;;;;;2.40;100.00;97720.63;6104088;19;20017;-75
2023/11/13 06:32:23;;;;;;;10.90;7.18;;;;;;;2.40;100.00;97713.25;6102617;19;20020;-74
2023/11/13 06:34:24;;;;;;;13.52;8.07;;;;;;;2.43;100.00;97706.31;6103484;19;20003;-75
2023/11/13 06:36:24;;;;;;;15.68;7.95;;;;;;;2.48;100.00;97706.88;6102103;19;20741;-75
2023/11/13 06:38:24;;;;;;;12.43;7.65;;;;;;;2.48;100.00;97697.88;6101431;19;19998;-75
2023/11/13 06:40:25;;;;;;;12.63;7.53;;;;;;;2.50;100.00;97690.16;6102905;19;20647;-74
2023/11/13 06:42:25;;;;;;;12.65;6.95;;;;;;;2.51;100.00;97708.13;6103937;19;20010;-75
2023/11/13 06:44:26;;;;;;;11.55;7.70;;;;;;;2.50;100.00;97695.63;6104048;19;20268;-74
2023/11/13 06:46:26;;;;;;;11.63;6.70;;;;;;;2.50;100.00;97684.69;6101543;19;20393;-75
2023/11/13 06:48:26;;;;;;;12.63;7.05;;;;;;;2.53;100.00;97687.50;6103102;19;20002;-75
2023/11/13 06:50:27;;;;;;;12.88;6.38;;;;;;;2.56;100.00;97694.22;6103947;19;20074;-74
2023/11/13 06:52:27;;;;;;;11.73;6.93;;;;;;;2.56;100.00;97698.88;6103077;19;20423;-74
2023/11/13 06:54:27;;;;;;;12.82;6.50;;;;;;;2.58;100.00;97696.63;6101277;19;20447;-74
2023/11/13 06:56:31;;;;;;;13.85;7.03;;;;;;;2.59;100.00;97695.47;6101917;19;20006;-75
2023/11/13 06:58:34;;;;;;;11.43;6.25;;;;;;;2.62;100.00;97700.25;6103067;19;20007;-75
2023/11/13 07:00:35;;;;;;;13.07;7.68;;;;;;;2.63;100.00;97702.63;6102818;19;20010;-75
2023/11/13 07:02:39;;;;;;;11.00;7.10;;;;;;;2.65;100.00;97705.00;6103977;19;20354;-74
2023/11/13 07:04:40;;;;;;;15.23;7.45;;;;;;;2.66;100.00;97709.34;6103583;19;20014;-75
2023/11/13 07:06:41;;;;;;;13.98;7.75;;;;;;;2.69;100.00;97712.19;6102123;19;20014;-75
2023/11/13 07:08:41;;;;;;;14.15;7.80;;;;;;;2.71;100.00;97711.84;6101083;19;20006;-75
2023/11/13 07:10:43;;;;;;;12.65;6.90;;;;;;;2.71;100.00;97704.44;6104401;19;20010;-74
2023/11/13 07:12:43;;;;;;;12.10;7.00;;;;;;;2.73;100.00;97709.53;6102634;19;20413;-75
2023/11/13 07:14:43;;;;;;;13.32;8.65;;;;;;;2.75;100.00;97715.47;6103550;19;20010;-75
2023/11/13 07:16:44;;;;;;;13.95;7.35;;;;;;;2.77;100.00;97710.47;6100913;19;20003;-75
2023/11/13 07:18:46;;;;;;;14.25;7.90;;;;;;;2.78;100.00;97715.56;6102763;19;20546;-75
2023/11/13 07:20:46;;;;;;;11.75;7.43;;;;;;;2.79;100.00;97708.97;6102892;19;20006;-75
2023/11/13 07:22:50;;;;;;;13.27;8.27;;;;;;;2.79;100.00;97700.78;6103672;19;20021;-75
2023/11/13 07:24:50;;;;;;;12.40;7.28;;;;;;;2.80;100.00;97693.38;6102723;19;20098;-75
2023/11/13 07:26:50;;;;;;;13.52;7.63;;;;;;;2.86;100.00;97716.56;6102598;19;20007;-75
2023/11/13 07:28:51;;;;;;;14.30;7.95;;;;;;;2.89;100.00;97707.69;6095201;19;20038;-75
2023/11/13 07:30:51;;;;;;;12.13;6.90;;;;;;;2.92;100.00;97708.94;6093731;19;20487;-74
2023/11/13 07:32:52;;;;;;;14.60;8.35;;;;;;;2.95;100.00;97708.25;6093618;19;20297;-75
2023/11/13 07:34:53;;;;;;;12.77;7.55;;;;;;;2.97;100.00;97705.94;6093825;19;20006;-75
2023/11/13 07:36:53;;;;;;;14.18;8.20;;;;;;;2.99;100.00;97695.50;6092933;19;20486;-75
2023/11/13 07:38:54;;;;;;;13.38;7.97;;;;;;;3.01;100.00;97685.00;6093750;19;20007;-75
2023/11/13 07:40:54;;;;;;;19.02;7.97;;;;;;;3.03;100.00;97686.22;6093722;19;20387;-75
2023/11/13 07:42:54;;;;;;;11.95;8.02;;;;;;;3.07;100.00;97676.22;6093244;19;20312;-75
2023/11/13 07:44:55;;;;;;;12.48;7.57;;;;;;;3.10;100.00;97677.44;6093807;19;20324;-75
2023/11/13 07:46:57;;;;;;;13.05;8.13;;;;;;;3.16;100.00;97678.00;6093005;19;20003;-75
2023/11/13 07:48:57;;;;;;;13.52;7.68;;;;;;;3.18;100.00;97683.91;6093471;19;20321;-75
2023/11/13 07:50:57;;;;;;;13.68;9.05;;;;;;;3.21;100.00;97684.00;6093532;19;20010;-75
2023/11/13 07:52:58;;;;;;;17.75;10.48;;;;;;;3.26;100.00;97689.22;6093458;19;20007;-75
2023/11/13 07:54:59;;;;;;;14.43;9.43;;;;;;;3.28;100.00;97684.19;6093015;19;20003;-75
2023/11/13 07:57:00;;;;;;;13.50;8.23;;;;;;;3.36;100.00;97690.66;6092099;19;20295;-75
2023/11/13 07:59:05;;;;;;;12.20;6.75;;;;;;;3.42;100.00;97680.25;6091255;19;20767;-75
2023/11/13 08:01:06;;;;;;;15.37;8.67;;;;;;;3.47;100.00;97690.91;6092981;19;20017;-75
2023/11/13 08:03:06;;;;;;;13.30;7.97;;;;;;;3.46;100.00;97692.06;6093191;19;20044;-75
2023/11/13 08:05:12;;;;;;;13.32;8.38;;;;;;;3.49;100.00;97694.13;6093372;19;20019;-74
2023/11/13 08:07:13;;;;;;;15.70;9.52;;;;;;;3.49;100.00;97689.44;6092278;19;20011;-75
2023/11/13 08:09:15;;;;;;;15.07;7.40;;;;;;;3.51;100.00;97697.28;6093429;19;20007;-74
2023/11/13 08:11:17;;;;;;;10.77;7.10;;;;;;;3.51;100.00;97694.56;6093031;19;20454;-75
2023/11/13 08:13:23;;;;;;;12.85;7.35;;;;;;;3.52;100.00;97691.47;6092799;19;20003;-75
2023/11/13 08:15:25;;;;;;;10.10;6.80;;;;;;;3.53;100.00;97687.59;6092686;19;20030;-75
2023/11/13 08:17:25;;;;;;;15.27;7.55;;;;;;;3.56;100.00;97683.38;6091984;19;20014;-75
2023/11/13 08:19:27;;;;;;;14.23;7.90;;;;;;;3.58;100.00;97681.88;6093266;19;20351;-75
2023/11/13 08:21:30;;;;;;;13.85;8.77;;;;;;;3.61;100.00;97678.41;6092766;19;20010;-75
2023/11/13 08:23:31;;;;;;;17.52;9.38;;;;;;;3.64;100.00;97685.13;6092359;19;20007;-75
2023/11/13 08:25:32;;;;;;;16.00;8.30;;;;;;;3.63;100.00;97678.84;6092262;19;20520;-75
2023/11/13 08:27:33;;;;;;;16.38;9.27;;;;;;;3.68;100.00;97677.81;6089708;19;20340;-75
2023/11/13 08:29:34;;;;;;;18.77;9.57;;;;;;;3.70;100.00;97682.94;6100452;19;20006;-75
2023/11/13 08:31:34;;;;;;;23.60;9.48;;;;;;;3.74;100.00;97681.09;6101446;19;20486;-75
2023/11/13 08:33:34;;;;;;;12.75;8.80;;;;;;;3.73;100.00;97683.03;6100100;19;20010;-75
2023/11/13 08:35:35;;;;;;;15.65;9.10;;;;;;;3.73;100.00;97676.78;6099545;19;19999;-75
2023/11/13 08:37:35;;;;;;;18.63;8.80;;;;;;;3.78;100.00;97692.91;6100723;19;20009;-75
2023/11/13 08:39:37;;;;;;;17.77;9.40;;;;;;;3.80;100.00;97687.88;6098770;19;20037;-75
2023/11/13 08:41:38;;;;;;;14.20;8.27;;;;;;;3.80;100.00;97680.44;6101287;19;20020;-75
2023/11/13 08:43:38;;;;;;;14.88;9.20;;;;;;;3.84;100.00;97677.81;6100407;19;19995;-75
2023/11/13 08:45:39;;;;;;;19.15;12.35;;;;;;;3.87;100.00;97671.63;6099628;19;20513;-75
2023/11/13 08:47:40;;;;;;;22.23;14.25;;;;;;;3.90;100.00;97669.00;6100308;19;20253;-75
2023/11/13 08:49:42;;;;;;;20.83;13.98;;;;;;;3.93;100.00;97664.75;6100940;19;20057;-74
2023/11/13 08:51:42;;;;;;;21.98;14.13;;;;;;;3.99;100.00;97663.34;6100663;19;19998;-75
2023/11/13 08:53:42;;;;;;;21.58;13.30;;;;;;;4.06;100.00;97654.50;6099954;19;20430;-75
2023/11/13 08:55:43;;;;;;;20.88;12.38;;;;;;;4.12;100.00;97674.97;6099260;19;20645;-75
2023/11/13 08:57:45;;;;;;;26.52;13.52;;;;;;;4.14;100.00;97664.47;6100030;19;20002;-75
2023/11/13 08:59:46;;;;;;;30.15;14.55;;;;;;;4.18;100.00;97663.41;6100645;19;20007;-74
2023/11/13 09:01:46;;;;;;;21.17;10.90;;;;;;;4.22;100.00;97658.03;6100043;19;20436;-75
2023/11/13 09:03:47;;;;;;;23.40;12.25;;;;;;;4.28;100.00;97656.56;6100142;19;20747;-74
2023/11/13 09:05:47;;;;;;;25.25;12.52;;;;;;;4.32;100.00;97649.25;6098258;19;20283;-74
2023/11/13 09:07:47;;;;;;;18.40;10.57;;;;;;;4.37;100.00;97651.69;6099494;19;20003;-75
2023/11/13 09:09:54;;;;;;;20.38;11.15;;;;;;;4.41;100.00;97643.56;6100579;19;20006;-74
2023/11/13 09:11:55;;;;;;;18.10;10.38;;;;;;;4.39;100.00;97635.72;6100449;19;20006;-75
2023/11/13 09:13:55;;;;;;;22.50;11.00;;;;;;;4.42;100.00;97648.69;6099647;19;20015;-75
2023/11/13 09:15:55;;;;;;;20.02;10.20;;;;;;;4.45;100.00;97642.50;6098599;19;19999;-74
2023/11/13 09:18:01;;;;;;;20.75;10.43;;;;;;;4.48;100.00;97643.75;6098938;19;20999;-74
2023/11/13 09:20:01;;;;;;;18.38;8.70;;;;;;;4.53;100.00;97640.69;6099268;19;20007;-75
2023/11/13 09:22:03;;;;;;;13.90;8.00;;;;;;;4.55;100.00;97643.91;6098950;19;19998;-75
2023/11/13 09:24:05;;;;;;;13.35;7.68;;;;;;;4.57;100.00;97646.28;6099506;19;19995;-75
2023/11/13 09:26:05;;;;;;;14.13;8.52;;;;;;;4.57;100.00;97643.53;6098461;19;20010;-74